Fisher Golf — FUGD — position and weather

sailwx.info

Track history (hours):
 
Tides and Currents Weather Stations Pressure Air Temp Water Temp Dewpoint Dewpoint Depression Visibility Wind Speed Wind Dir Waves Ship Positions

Fisher Golf

Last reported at 2015-Aug-31 05:17 UTC. Time now 2015-Sep-03 10:59 UTC.
Position N 46°32' W 004°02'.

Length 20 m.

Type: Fishing. MMSI: 228239000.

Date/timePositionNaut miles runAvg speedWind from/ knotsBaromVisibWave heightAir tempDewpointWater temp
2015-Aug-31 05:17N 46°32' W 004°02'1 0.0
2015-Aug-30 12:18N 46°31' W 004°02'2 2.7
2015-Aug-30 11:28N 46°29' W 004°02'3 2.2
2015-Aug-30 10:18N 46°27' W 004°05'3 2.5
2015-Aug-30 09:18N 46°29' W 004°07'2 3.0
2015-Aug-30 08:32N 46°30' W 004°04'1 0.5
2015-Aug-30 06:11N 46°32' W 004°04'2 2.3
2015-Aug-30 05:26N 46°31' W 004°06'1 0.0
2015-Aug-29 14:10N 46°31' W 004°06'2 2.6
2015-Aug-29 13:33N 46°31' W 004°04'3 2.8
2015-Aug-29 12:33N 46°30' W 004°01'4 1.1
2015-Aug-29 09:14N 46°32' W 004°06'  
2015-Aug-26 03:19N 45°55' W 001°20'  
2015-Aug-22 03:13N 46°25' W 003°28'1 2.2
2015-Aug-22 02:33N 46°25' W 003°26'3 2.9
2015-Aug-22 01:33N 46°24' W 003°22'3 2.9
2015-Aug-22 00:33N 46°22' W 003°19'8 2.4
2015-Aug-21 21:23N 46°15' W 003°21'2 2.7
2015-Aug-21 20:33N 46°13' W 003°19'3 3.0
2015-Aug-21 19:33N 46°13' W 003°14'3 3.0
2015-Aug-21 18:34N 46°13' W 003°10'3 2.7
2015-Aug-21 17:33N 46°13' W 003°06'3 2.8
2015-Aug-21 16:33N 46°12' W 003°02'3 2.8
2015-Aug-21 15:33N 46°11' W 002°59'3 3.0
2015-Aug-21 14:33N 46°09' W 002°55'8 7.2
2015-Aug-21 13:22N 46°07' W 002°44'810.0
2015-Aug-21 12:33N 46°05' W 002°32'1110.2
2015-Aug-21 11:28N 46°02' W 002°16'9 9.5
2015-Aug-21 10:30N 46°00' W 002°03'9 9.8
2015-Aug-21 09:33N 45°58' W 001°51'10 9.8
2015-Aug-21 08:33N 45°56' W 001°37'8 8.3
2015-Aug-21 07:33N 45°54' W 001°25'4 3.9
2015-Aug-21 06:33N 45°55' W 001°20'0 0.1
2015-Aug-21 05:33N 45°55' W 001°20'  
Track history (hours):
 
Tides and Currents Weather Stations Pressure Air Temp Water Temp Dewpoint Dewpoint Depression Visibility Wind Speed Wind Dir Waves Ship Positions

Fisher Golf

Last reported at 2015-Aug-31 05:17 UTC. Time now 2015-Sep-03 10:59 UTC.
Position N 46°32' W 004°02'.

Length 20 m.

Type: Fishing. MMSI: 228239000.

Date/timePositionNaut miles runAvg speedWind from/ knotsBaromVisibWave heightAir tempDewpointWater temp
2015-Aug-31 05:17N 46°32' W 004°02'1 0.0
2015-Aug-30 12:18N 46°31' W 004°02'2 2.7
2015-Aug-30 11:28N 46°29' W 004°02'3 2.2
2015-Aug-30 10:18N 46°27' W 004°05'3 2.5
2015-Aug-30 09:18N 46°29' W 004°07'2 3.0
2015-Aug-30 08:32N 46°30' W 004°04'1 0.5
2015-Aug-30 06:11N 46°32' W 004°04'2 2.3
2015-Aug-30 05:26N 46°31' W 004°06'1 0.0
2015-Aug-29 14:10N 46°31' W 004°06'2 2.6
2015-Aug-29 13:33N 46°31' W 004°04'3 2.8
2015-Aug-29 12:33N 46°30' W 004°01'4 1.1
2015-Aug-29 09:14N 46°32' W 004°06'  
2015-Aug-26 03:19N 45°55' W 001°20'  
2015-Aug-22 03:13N 46°25' W 003°28'1 2.2
2015-Aug-22 02:33N 46°25' W 003°26'3 2.9
2015-Aug-22 01:33N 46°24' W 003°22'3 2.9
2015-Aug-22 00:33N 46°22' W 003°19'8 2.4
2015-Aug-21 21:23N 46°15' W 003°21'2 2.7
2015-Aug-21 20:33N 46°13' W 003°19'3 3.0
2015-Aug-21 19:33N 46°13' W 003°14'3 3.0
2015-Aug-21 18:34N 46°13' W 003°10'3 2.7
2015-Aug-21 17:33N 46°13' W 003°06'3 2.8
2015-Aug-21 16:33N 46°12' W 003°02'3 2.8
2015-Aug-21 15:33N 46°11' W 002°59'3 3.0
2015-Aug-21 14:33N 46°09' W 002°55'8 7.2
2015-Aug-21 13:22N 46°07' W 002°44'810.0
2015-Aug-21 12:33N 46°05' W 002°32'1110.2
2015-Aug-21 11:28N 46°02' W 002°16'9 9.5
2015-Aug-21 10:30N 46°00' W 002°03'9 9.8
2015-Aug-21 09:33N 45°58' W 001°51'10 9.8
2015-Aug-21 08:33N 45°56' W 001°37'8 8.3
2015-Aug-21 07:33N 45°54' W 001°25'4 3.9
2015-Aug-21 06:33N 45°55' W 001°20'0 0.1
2015-Aug-21 05:33N 45°55' W 001°20'  

Dump ship's entire track history